createdAt,value
2023-03-22T05:26:09.207Z,5.25
2023-03-22T05:30:13.592Z,5.25
2023-03-22T05:34:17.608Z,4.76
2023-03-22T05:38:23.146Z,4.89
2023-03-22T05:42:26.780Z,4.97
2023-03-22T05:46:30.318Z,5.13
2023-03-22T05:50:36.001Z,5.09
2023-03-22T05:54:39.996Z,5.24
2023-03-22T05:58:45.145Z,5.28
2023-03-22T06:02:49.698Z,5.42
2023-03-22T06:06:54.142Z,5.76
2023-03-22T06:10:58.514Z,6.04
2023-03-22T06:15:02.515Z,6.52
2023-03-22T06:19:08.396Z,6.83
2023-03-22T06:23:11.793Z,7.31
2023-03-22T06:27:15.118Z,7.62
2023-03-22T06:31:39.360Z,7.88
2023-03-22T06:35:42.275Z,8.08
2023-03-22T06:39:46.744Z,8.41
2023-03-22T06:43:50.225Z,8.83
2023-03-22T06:47:57.780Z,8.98
2023-03-22T06:52:01.530Z,9.38
2023-03-22T06:56:05.960Z,9.72
2023-03-22T07:00:13.274Z,10.04
2023-03-22T07:04:21.086Z,10.35
2023-03-22T07:08:26.095Z,10.53
2023-03-22T07:12:32.521Z,10.82
2023-03-22T07:17:01.485Z,11.07
2023-03-22T07:21:24.415Z,11.30
2023-03-22T07:26:07.471Z,11.56
2023-03-22T07:30:38.899Z,11.69
2023-03-22T07:34:51.702Z,11.83
2023-03-22T07:39:00.387Z,12.13
2023-03-22T07:43:17.798Z,11.89
2023-03-22T07:52:34.770Z,12.39
2023-03-22T07:57:08.837Z,12.93
2023-03-22T08:01:18.450Z,13.36
2023-03-22T08:05:29.901Z,13.44
2023-03-22T08:09:47.278Z,14.03
2023-03-22T08:14:27.449Z,13.99
2023-03-22T08:19:13.143Z,14.39
2023-03-22T08:23:42.045Z,14.85
2023-03-22T08:28:14.514Z,15.03
2023-03-22T08:32:41.771Z,15.23
2023-03-22T08:36:50.771Z,15.21
2023-03-22T08:41:55.336Z,15.77
2023-03-22T08:47:25.668Z,15.87
2023-03-22T08:56:33.709Z,16.35
2023-03-22T09:10:20.843Z,17.20
2023-03-22T09:14:25.090Z,17.27
2023-03-22T09:19:34.049Z,18.13
2023-03-22T09:29:18.494Z,18.01
2023-03-22T09:33:44.830Z,17.71
2023-03-22T09:37:55.132Z,17.79
2023-03-22T09:42:08.999Z,17.58
2023-03-22T09:46:44.919Z,18.15
2023-03-22T09:50:53.028Z,18.92
2023-03-22T09:55:42.384Z,18.74
2023-03-22T10:00:23.356Z,18.88
2023-03-22T10:04:51.240Z,19.61
2023-03-22T10:09:10.692Z,19.96
2023-03-22T10:14:11.926Z,20.54
2023-03-22T10:18:55.728Z,20.50
2023-03-22T10:23:02.326Z,21.13
2023-03-22T10:32:22.187Z,19.87
2023-03-22T10:36:40.890Z,19.72
2023-03-22T10:40:53.746Z,19.43
2023-03-22T10:45:22.696Z,19.52
2023-03-22T10:49:56.365Z,20.11
2023-03-22T10:54:27.982Z,19.55
2023-03-22T10:58:51.535Z,19.97
2023-03-22T11:03:00.353Z,20.50
2023-03-22T11:07:03.647Z,20.74
2023-03-22T11:16:05.796Z,20.83
2023-03-22T11:20:24.161Z,22.17
2023-03-22T11:24:47.204Z,21.86
2023-03-22T11:29:30.376Z,21.16
2023-03-22T11:33:39.254Z,20.09
2023-03-22T11:38:07.360Z,21.00
2023-03-22T11:42:19.915Z,20.27
2023-03-22T11:51:35.712Z,20.22
2023-03-22T11:56:33.688Z,19.67
2023-03-22T12:01:03.314Z,19.06
2023-03-22T12:10:51.912Z,18.22
2023-03-22T12:15:42.775Z,18.22
2023-03-22T12:20:15.932Z,17.70
2023-03-22T12:24:43.157Z,17.38
2023-03-22T12:28:47.304Z,17.40
2023-03-22T12:33:33.169Z,17.16
2023-03-22T12:37:41.038Z,17.30
2023-03-22T12:41:49.486Z,17.52
2023-03-22T12:45:58.394Z,16.95
2023-03-22T12:50:13.352Z,16.83
2023-03-22T12:54:23.838Z,16.58
2023-03-22T12:58:45.359Z,16.53
2023-03-22T13:03:59.985Z,16.32
2023-03-22T13:08:23.245Z,16.42
2023-03-22T13:17:02.204Z,16.83
2023-03-22T13:21:19.346Z,17.20
2023-03-22T13:25:37.728Z,17.09
2023-03-22T13:29:42.315Z,17.34
2023-03-22T13:33:54.487Z,17.68
2023-03-22T13:38:14.124Z,18.83
2023-03-22T13:42:23.034Z,18.15
2023-03-22T13:46:45.427Z,18.10
2023-03-22T13:51:08.271Z,18.13
2023-03-22T13:55:35.269Z,17.82
2023-03-22T14:00:14.403Z,17.32
2023-03-22T14:04:29.802Z,17.09
2023-03-22T14:08:35.051Z,17.12
2023-03-22T14:12:51.308Z,17.47
2023-03-22T14:17:27.207Z,17.46
